PrinceSS Rawya — 9LU2572 — position and weather

sailwx.info

Track history (hours):
 
Tides and Currents Weather Stations Pressure Air Temp Water Temp Dewpoint Dewpoint Depression Visibility Wind Speed Wind Dir Waves Ship Positions

PrinceSS Rawya

Last reported at 2017-Sep-29 09:56 UTC. Time now 2017-Oct-17 04:33 UTC.
Position N 37°27' E 025°56'.
Warning: this ship's position is 17 days out of date.

Length 107 m; draft 6.1 m.

Type: Ship. MMSI: 667001769.

Date/timePositionNaut miles runAvg speedWind from/ knotsBaromVisibWave heightAir tempDewpointWater temp
2017-Sep-29 09:56N 37°27' E 025°56'3 6.5
2017-Sep-29 09:30N 37°29' E 025°53'4 7.0
2017-Sep-29 09:00N 37°32' E 025°52'4 7.7
2017-Sep-29 08:26N 37°36' E 025°50'3 7.9
2017-Sep-29 08:00N 37°39' E 025°48'4 7.8
2017-Sep-29 07:30N 37°43' E 025°46'4 7.5
2017-Sep-29 07:00N 37°46' E 025°44'  
2017-Sep-24 18:05N 44°27' E 037°18'1 8.1
2017-Sep-24 17:59N 44°27' E 037°19'4 8.1
2017-Sep-24 17:30N 44°29' E 037°24'4 8.1
2017-Sep-24 17:00N 44°31' E 037°29'4 8.1
2017-Sep-24 16:30N 44°33' E 037°34'4 7.9
2017-Sep-24 16:00N 44°35' E 037°38'4 7.4
2017-Sep-24 15:30N 44°35' E 037°44'4 8.2
2017-Sep-24 15:00N 44°38' E 037°48'4 7.1
2017-Sep-24 14:31N 44°41' E 037°51'0 0.8
2017-Sep-24 14:00N 44°41' E 037°51'0 0.0
2017-Sep-24 13:30N 44°41' E 037°51'0 0.1
2017-Sep-24 13:00N 44°41' E 037°51'0 0.0
2017-Sep-24 12:30N 44°41' E 037°51'0 0.1
2017-Sep-24 12:00N 44°41' E 037°51'0 0.1
2017-Sep-24 11:30N 44°41' E 037°52'0 0.1
2017-Sep-24 11:00N 44°41' E 037°51'1 2.5
2017-Sep-24 10:30N 44°42' E 037°50'2 3.9
2017-Sep-24 10:00N 44°43' E 037°49'0 0.0
2017-Sep-24 09:28N 44°43' E 037°49'0 0.0
2017-Sep-24 08:58N 44°43' E 037°49'0 0.0
2017-Sep-24 08:28N 44°43' E 037°49'0 0.0
2017-Sep-24 07:58N 44°43' E 037°49'0 0.0
2017-Sep-24 07:31N 44°43' E 037°49'0 0.0
2017-Sep-24 06:58N 44°43' E 037°49'0 0.0
2017-Sep-24 06:28N 44°43' E 037°49'0 0.0
2017-Sep-24 06:01N 44°43' E 037°49'0 0.0
2017-Sep-24 05:28N 44°43' E 037°49'0 0.0
2017-Sep-24 04:58N 44°43' E 037°49'0 0.0
2017-Sep-24 04:28N 44°43' E 037°49'0 0.0
2017-Sep-24 03:58N 44°43' E 037°49'0 0.0
2017-Sep-24 03:28N 44°43' E 037°49'0 0.0
2017-Sep-24 02:58N 44°43' E 037°49'0 0.0
2017-Sep-24 02:28N 44°43' E 037°49'0 0.0
2017-Sep-24 01:58N 44°43' E 037°49'0 0.0
2017-Sep-24 01:31N 44°43' E 037°49'0 0.0
2017-Sep-24 01:01N 44°43' E 037°49'0 0.0
2017-Sep-24 00:28N 44°43' E 037°49'0 0.0
2017-Sep-23 23:58N 44°43' E 037°49'0 0.0
2017-Sep-23 23:28N 44°43' E 037°49'0 0.0
2017-Sep-23 22:58N 44°43' E 037°49'0 0.0
2017-Sep-23 22:28N 44°43' E 037°49'0 0.0
2017-Sep-23 21:58N 44°43' E 037°49'0 0.0
2017-Sep-23 21:28N 44°43' E 037°49'0 0.0
2017-Sep-23 20:58N 44°43' E 037°49'0 0.0
2017-Sep-23 20:28N 44°43' E 037°49'0 0.0
2017-Sep-23 19:58N 44°43' E 037°49'  
Track history (hours):
 
Tides and Currents Weather Stations Pressure Air Temp Water Temp Dewpoint Dewpoint Depression Visibility Wind Speed Wind Dir Waves Ship Positions

PrinceSS Rawya

Last reported at 2017-Sep-29 09:56 UTC. Time now 2017-Oct-17 04:33 UTC.
Position N 37°27' E 025°56'.
Warning: this ship's position is 17 days out of date.

Length 107 m; draft 6.1 m.

Type: Ship. MMSI: 667001769.

Date/timePositionNaut miles runAvg speedWind from/ knotsBaromVisibWave heightAir tempDewpointWater temp
2017-Sep-29 09:56N 37°27' E 025°56'3 6.5
2017-Sep-29 09:30N 37°29' E 025°53'4 7.0
2017-Sep-29 09:00N 37°32' E 025°52'4 7.7
2017-Sep-29 08:26N 37°36' E 025°50'3 7.9
2017-Sep-29 08:00N 37°39' E 025°48'4 7.8
2017-Sep-29 07:30N 37°43' E 025°46'4 7.5
2017-Sep-29 07:00N 37°46' E 025°44'  
2017-Sep-24 18:05N 44°27' E 037°18'1 8.1
2017-Sep-24 17:59N 44°27' E 037°19'4 8.1
2017-Sep-24 17:30N 44°29' E 037°24'4 8.1
2017-Sep-24 17:00N 44°31' E 037°29'4 8.1
2017-Sep-24 16:30N 44°33' E 037°34'4 7.9
2017-Sep-24 16:00N 44°35' E 037°38'4 7.4
2017-Sep-24 15:30N 44°35' E 037°44'4 8.2
2017-Sep-24 15:00N 44°38' E 037°48'4 7.1
2017-Sep-24 14:31N 44°41' E 037°51'0 0.8
2017-Sep-24 14:00N 44°41' E 037°51'0 0.0
2017-Sep-24 13:30N 44°41' E 037°51'0 0.1
2017-Sep-24 13:00N 44°41' E 037°51'0 0.0
2017-Sep-24 12:30N 44°41' E 037°51'0 0.1
2017-Sep-24 12:00N 44°41' E 037°51'0 0.1
2017-Sep-24 11:30N 44°41' E 037°52'0 0.1
2017-Sep-24 11:00N 44°41' E 037°51'1 2.5
2017-Sep-24 10:30N 44°42' E 037°50'2 3.9
2017-Sep-24 10:00N 44°43' E 037°49'0 0.0
2017-Sep-24 09:28N 44°43' E 037°49'0 0.0
2017-Sep-24 08:58N 44°43' E 037°49'0 0.0
2017-Sep-24 08:28N 44°43' E 037°49'0 0.0
2017-Sep-24 07:58N 44°43' E 037°49'0 0.0
2017-Sep-24 07:31N 44°43' E 037°49'0 0.0
2017-Sep-24 06:58N 44°43' E 037°49'0 0.0
2017-Sep-24 06:28N 44°43' E 037°49'0 0.0
2017-Sep-24 06:01N 44°43' E 037°49'0 0.0
2017-Sep-24 05:28N 44°43' E 037°49'0 0.0
2017-Sep-24 04:58N 44°43' E 037°49'0 0.0
2017-Sep-24 04:28N 44°43' E 037°49'0 0.0
2017-Sep-24 03:58N 44°43' E 037°49'0 0.0
2017-Sep-24 03:28N 44°43' E 037°49'0 0.0
2017-Sep-24 02:58N 44°43' E 037°49'0 0.0
2017-Sep-24 02:28N 44°43' E 037°49'0 0.0
2017-Sep-24 01:58N 44°43' E 037°49'0 0.0
2017-Sep-24 01:31N 44°43' E 037°49'0 0.0
2017-Sep-24 01:01N 44°43' E 037°49'0 0.0
2017-Sep-24 00:28N 44°43' E 037°49'0 0.0
2017-Sep-23 23:58N 44°43' E 037°49'0 0.0
2017-Sep-23 23:28N 44°43' E 037°49'0 0.0
2017-Sep-23 22:58N 44°43' E 037°49'0 0.0
2017-Sep-23 22:28N 44°43' E 037°49'0 0.0
2017-Sep-23 21:58N 44°43' E 037°49'0 0.0
2017-Sep-23 21:28N 44°43' E 037°49'0 0.0
2017-Sep-23 20:58N 44°43' E 037°49'0 0.0
2017-Sep-23 20:28N 44°43' E 037°49'0 0.0
2017-Sep-23 19:58N 44°43' E 037°49'  

Dump ship's entire track history